Time;durP1;ratioP1;P1;durP2;ratioP2;P2;SDS_P1;SDS_P2;PMS_P1;PMS_P2;Temp;Humidity;BMP_temperature;BMP_pressure;BME280_temperature;BME280_humidity;BME280_pressure;Samples;Min_cycle;Max_cycle;Signal;HPM_P1;HPM_P2
2023/03/17 00:00:45;;;;;;;5.30;1.70;;;34.40;56.00;;;;;;5068206;28;20184;-74
2023/03/17 00:03:24;;;;;;;5.10;1.20;;;34.50;55.30;;;;;;5068988;28;20666;-73
2023/03/17 00:05:54;;;;;;;4.65;1.45;;;33.90;56.90;;;;;;5068891;28;20180;-74
2023/03/17 00:08:31;;;;;;;6.30;1.40;;;34.20;55.30;;;;;;5068083;28;20176;-73
2023/03/17 00:10:59;;;;;;;3.33;1.27;;;34.10;55.10;;;;;;5051154;28;20184;-72
2023/03/17 00:13:27;;;;;;;3.45;1.35;;;34.80;57.20;;;;;;5046195;28;20597;-69
2023/03/17 00:16:01;;;;;;;3.47;1.02;;;35.20;51.80;;;;;;5049568;28;20219;-73
2023/03/17 00:18:34;;;;;;;6.03;1.00;;;35.00;53.80;;;;;;5041265;28;20188;-75
2023/03/17 00:21:01;;;;;;;3.70;1.13;;;35.00;53.20;;;;;;5054854;28;20176;-74
2023/03/17 00:23:28;;;;;;;3.58;1.25;;;35.40;51.50;;;;;;5054698;28;20173;-75
2023/03/17 00:25:56;;;;;;;4.50;1.45;;;35.20;52.00;;;;;;5052919;28;20256;-74
2023/03/17 00:28:26;;;;;;;7.20;1.20;;;35.60;51.30;;;;;;5041743;28;20195;-73
2023/03/17 00:30:56;;;;;;;6.85;1.23;;;35.80;49.80;;;;;;5053285;28;20192;-74
2023/03/17 00:33:27;;;;;;;5.15;1.20;;;35.90;49.30;;;;;;5054458;28;20197;-71
2023/03/17 00:35:57;;;;;;;2.97;0.90;;;36.00;50.00;;;;;;5042089;28;20287;-72
2023/03/17 00:38:24;;;;;;;2.75;0.80;;;36.10;49.10;;;;;;5053877;28;20552;-72
2023/03/17 00:40:52;;;;;;;7.20;1.42;;;35.90;50.00;;;;;;5063670;28;20192;-73
2023/03/17 00:43:19;;;;;;;4.57;1.05;;;36.50;51.00;;;;;;5053740;28;20188;-71
2023/03/17 00:45:48;;;;;;;3.05;1.10;;;36.70;46.80;;;;;;5054351;28;20183;-72
2023/03/17 00:48:20;;;;;;;6.07;1.30;;;36.50;49.00;;;;;;5050808;28;20334;-74
2023/03/17 00:50:50;;;;;;;8.38;1.48;;;36.80;51.00;;;;;;5044597;28;20192;-75
2023/03/17 00:53:22;;;;;;;3.05;0.93;;;36.00;40.00;;;;;;5052630;28;20555;-72
2023/03/17 00:55:50;;;;;;;8.65;1.08;;;36.10;37.90;;;;;;5033788;28;20244;-72
2023/03/17 00:58:28;;;;;;;3.13;0.93;;;37.00;39.60;;;;;;5052747;28;20257;-72
2023/03/17 01:00:55;;;;;;;7.97;1.00;;;37.10;35.80;;;;;;5052699;28;20187;-72
2023/03/17 01:03:27;;;;;;;3.85;1.45;;;37.20;34.20;;;;;;5053684;28;20272;-73
2023/03/17 01:05:58;;;;;;;7.50;1.15;;;37.40;37.40;;;;;;5037233;28;20227;-72
2023/03/17 01:08:27;;;;;;;3.15;0.75;;;37.40;35.50;;;;;;5053978;28;20196;-73
2023/03/17 01:10:55;;;;;;;3.65;1.00;;;37.70;31.10;;;;;;5053801;28;20177;-72
2023/03/17 01:16:46;;;;;;;4.13;0.93;;;37.90;29.40;;;;;;5051913;28;20207;-73
2023/03/17 01:19:15;;;;;;;3.13;0.90;;;37.20;27.30;;;;;;5050134;28;20196;-73
2023/03/17 01:21:43;;;;;;;2.65;1.50;;;37.10;26.10;;;;;;5052362;28;20195;-72
2023/03/17 01:24:10;;;;;;;5.57;1.17;;;37.10;25.70;;;;;;5053170;28;20646;-72
2023/03/17 01:26:39;;;;;;;7.95;1.58;;;37.70;26.50;;;;;;5052455;28;20675;-73
2023/03/17 01:29:06;;;;;;;2.65;1.55;;;38.00;25.10;;;;;;5052101;28;20183;-72
2023/03/17 01:31:35;;;;;;;6.97;1.80;;;38.20;26.40;;;;;;5053304;28;20176;-73
2023/03/17 01:34:04;;;;;;;5.13;1.50;;;38.30;24.60;;;;;;5052604;28;20188;-72
2023/03/17 01:36:33;;;;;;;2.47;1.35;;;38.00;22.20;;;;;;5052257;28;20216;-73
2023/03/17 01:39:00;;;;;;;2.45;0.77;;;37.70;23.60;;;;;;5053109;28;20231;-72
2023/03/17 01:41:28;;;;;;;3.70;0.77;;;37.30;23.20;;;;;;5053247;28;20211;-73
2023/03/17 01:43:56;;;;;;;5.80;1.38;;;37.50;23.90;;;;;;5053302;28;20271;-73
2023/03/17 01:46:28;;;;;;;5.57;1.67;;;37.80;24.90;;;;;;5050174;28;20255;-72
2023/03/17 01:49:08;;;;;;;7.72;2.53;;;37.40;23.80;;;;;;5048835;28;20181;-72
2023/03/17 01:51:36;;;;;;;4.40;2.10;;;37.30;21.90;;;;;;5065453;28;20164;-71
2023/03/17 01:54:15;;;;;;;4.82;2.13;;;37.70;22.00;;;;;;5051444;28;20172;-73
2023/03/17 01:56:47;;;;;;;5.85;2.67;;;38.20;21.40;;;;;;5052116;28;20236;-73
2023/03/17 01:59:19;;;;;;;6.15;2.50;;;38.10;21.00;;;;;;5051958;28;20185;-74
2023/03/17 02:01:56;;;;;;;5.05;2.50;;;37.80;19.50;;;;;;5046935;28;20250;-73
2023/03/17 02:04:25;;;;;;;7.45;2.90;;;37.80;20.90;;;;;;5051938;28;20191;-72
2023/03/17 02:06:53;;;;;;;6.80;3.53;;;38.10;21.70;;;;;;5052533;28;20216;-73
2023/03/17 02:09:20;;;;;;;9.10;4.00;;;38.10;21.20;;;;;;5036238;28;20184;-72
2023/03/17 02:11:49;;;;;;;5.85;4.57;;;37.80;20.00;;;;;;5050942;28;20618;-73
2023/03/17 02:14:16;;;;;;;9.73;4.45;;;37.60;17.40;;;;;;5049552;28;20664;-73
2023/03/17 02:16:45;;;;;;;6.90;4.90;;;37.60;21.50;;;;;;5051425;28;20701;-72
2023/03/17 02:19:12;;;;;;;8.75;5.38;;;37.40;18.10;;;;;;5050560;28;20654;-73
2023/03/17 02:21:42;;;;;;;9.23;4.97;;;37.60;18.70;;;;;;5051939;28;20188;-74
2023/03/17 02:24:21;;;;;;;9.48;5.60;;;38.30;19.40;;;;;;5050917;28;20279;-75
2023/03/17 02:26:51;;;;;;;9.38;4.82;;;38.50;17.70;;;;;;5050083;28;20241;-73
2023/03/17 02:29:20;;;;;;;7.13;5.22;;;38.60;18.10;;;;;;5052446;28;20172;-72
2023/03/17 02:31:48;;;;;;;9.30;6.18;;;38.40;17.70;;;;;;5051814;28;20234;-72
2023/03/17 02:34:16;;;;;;;10.68;6.80;;;38.00;18.80;;;;;;5051261;28;20188;-74
2023/03/17 02:36:45;;;;;;;8.68;6.28;;;38.00;20.40;;;;;;5051974;28;20180;-72
2023/03/17 02:39:12;;;;;;;12.40;7.10;;;38.30;17.00;;;;;;5051172;28;20189;-74
2023/03/17 02:41:40;;;;;;;9.77;6.20;;;38.40;19.30;;;;;;5051725;28;20176;-73
2023/03/17 02:44:08;;;;;;;13.45;5.00;;;38.30;16.60;;;;;;5051379;28;20185;-72
2023/03/17 02:46:35;;;;;;;7.15;2.00;;;38.30;24.10;;;;;;5051481;28;20207;-72
2023/03/17 02:49:04;;;;;;;13.80;1.90;;;37.80;29.60;;;;;;5045556;28;20208;-73
2023/03/17 02:51:31;;;;;;;4.88;1.85;;;36.80;35.80;;;;;;5051331;28;20247;-72
2023/03/17 02:53:59;;;;;;;6.45;1.65;;;36.30;37.60;;;;;;5035201;28;20254;-73
2023/03/17 02:56:26;;;;;;;7.88;1.60;;;35.90;39.30;;;;;;5051507;28;20728;-73
2023/03/17 02:58:54;;;;;;;9.90;1.73;;;35.50;42.60;;;;;;5051632;28;20183;-74
2023/03/17 03:01:22;;;;;;;11.32;2.53;;;35.50;45.60;;;;;;5041859;28;20234;-71
2023/03/17 03:03:50;;;;;;;9.10;1.70;;;35.50;48.30;;;;;;5048823;28;20184;-71
2023/03/17 03:06:18;;;;;;;5.18;1.85;;;35.30;49.50;;;;;;5050561;28;20278;-72
2023/03/17 03:08:45;;;;;;;13.05;2.58;;;34.70;52.00;;;;;;5051362;28;20238;-72
2023/03/17 03:11:13;;;;;;;8.88;1.55;;;34.50;57.10;;;;;;5045627;28;20181;-72
2023/03/17 03:13:41;;;;;;;12.23;2.00;;;34.30;63.80;;;;;;5050550;28;20607;-72
2023/03/17 03:16:09;;;;;;;6.20;1.70;;;34.40;66.40;;;;;;5041296;28;20220;-72
2023/03/17 03:18:36;;;;;;;8.32;1.95;;;34.80;65.10;;;;;;5051097;28;20185;-72
2023/03/17 03:21:04;;;;;;;9.18;1.92;;;35.00;63.20;;;;;;5051046;28;20615;-72
2023/03/17 03:23:32;;;;;;;12.57;1.70;;;34.60;61.60;;;;;;5051017;28;20259;-71
2023/03/17 03:26:00;;;;;;;13.18;2.17;;;34.70;63.60;;;;;;5050683;28;20216;-72
2023/03/17 03:28:27;;;;;;;9.23;1.98;;;34.60;63.70;;;;;;5050883;28;20187;-71
2023/03/17 03:30:55;;;;;;;5.32;1.67;;;34.50;63.40;;;;;;5050939;28;20654;-71
2023/03/17 03:33:22;;;;;;;9.15;2.45;;;34.70;66.50;;;;;;5051067;28;20183;-72
2023/03/17 03:35:49;;;;;;;13.10;2.60;;;34.60;68.70;;;;;;5050804;28;20216;-71
2023/03/17 03:38:17;;;;;;;6.38;2.05;;;35.00;71.90;;;;;;5050790;28;20203;-71
2023/03/17 03:40:45;;;;;;;6.82;2.08;;;35.30;70.30;;;;;;5051003;28;20184;-71
2023/03/17 03:43:13;;;;;;;9.02;2.38;;;34.90;71.70;;;;;;5051113;28;20658;-71
2023/03/17 03:45:40;;;;;;;6.78;2.30;;;34.60;75.00;;;;;;5051033;28;20263;-71
2023/03/17 03:48:08;;;;;;;10.57;2.08;;;34.40;80.40;;;;;;5050876;28;20177;-72
2023/03/17 03:50:36;;;;;;;6.57;1.95;;;34.10;85.20;;;;;;5053375;28;20192;-71
2023/03/17 03:53:03;;;;;;;10.32;2.28;;;33.80;94.30;;;;;;5052456;28;20181;-71
2023/03/17 03:55:31;;;;;;;10.65;2.60;;;33.70;99.90;;;;;;5050722;28;20216;-71
2023/03/17 03:57:58;;;;;;;11.93;2.58;;;33.40;99.90;;;;;;5054906;28;20630;-72
2023/03/17 04:00:26;;;;;;;6.88;2.40;;;33.20;99.90;;;;;;5037687;28;20300;-71
2023/03/17 04:06:15;;;;;;;8.27;2.42;;;32.50;99.90;;;;;;5034242;28;20281;-71
2023/03/17 04:08:43;;;;;;;6.60;2.45;;;32.60;99.90;;;;;;5041554;28;20622;-71
2023/03/17 04:11:10;;;;;;;11.63;2.28;;;32.40;99.90;;;;;;5054054;28;20193;-71
2023/03/17 04:13:38;;;;;;;9.05;2.35;;;32.30;99.90;;;;;;5054728;28;20187;-71
2023/03/17 04:16:05;;;;;;;7.50;1.88;;;32.20;99.90;;;;;;5042696;28;20220;-71
2023/03/17 04:18:33;;;;;;;10.07;2.30;;;32.80;99.90;;;;;;5034836;28;20541;-71
2023/03/17 04:21:00;;;;;;;8.52;2.35;;;32.30;99.90;;;;;;5034528;28;20638;-71
2023/03/17 04:23:28;;;;;;;3.97;1.58;;;32.00;99.90;;;;;;5034088;28;20181;-71
2023/03/17 04:25:55;;;;;;;8.30;2.15;;;31.90;99.90;;;;;;5049931;28;20702;-71
2023/03/17 04:28:23;;;;;;;11.73;2.33;;;31.50;99.90;;;;;;5054511;28;20173;-71
2023/03/17 04:30:50;;;;;;;11.07;2.47;;;31.50;99.90;;;;;;5053731;28;20229;-71
2023/03/17 04:33:19;;;;;;;9.07;2.30;;;31.60;99.90;;;;;;5048774;28;20185;-71
2023/03/17 04:35:46;;;;;;;8.45;1.98;;;31.60;99.90;;;;;;5047712;28;20220;-71
2023/03/17 04:38:14;;;;;;;6.95;2.03;;;31.60;99.90;;;;;;5043906;28;20230;-71
2023/03/17 04:40:41;;;;;;;6.53;2.05;;;31.30;99.90;;;;;;5047956;28;21010;-74
2023/03/17 04:43:09;;;;;;;16.60;2.73;;;30.80;99.90;;;;;;5038446;28;20575;-73
2023/03/17 04:45:37;;;;;;;7.57;2.33;;;30.60;99.90;;;;;;5036062;28;20259;-72
2023/03/17 04:48:05;;;;;;;6.10;1.97;;;31.00;99.90;;;;;;5053900;28;20177;-71
2023/03/17 04:50:32;;;;;;;14.37;2.07;;;31.00;99.90;;;;;;5053932;28;20181;-72
2023/03/17 04:53:00;;;;;;;8.77;2.40;;;30.90;99.90;;;;;;5052689;28;20638;-72
2023/03/17 04:55:27;;;;;;;8.37;2.40;;;30.90;99.90;;;;;;5052962;28;20696;-72
2023/03/17 04:57:55;;;;;;;7.17;2.20;;;30.90;99.90;;;;;;5053212;28;20262;-72
2023/03/17 05:00:22;;;;;;;11.13;2.50;;;30.80;99.90;;;;;;5053813;28;20180;-73
2023/03/17 05:02:50;;;;;;;12.67;2.60;;;30.80;99.90;;;;;;5052818;28;20188;-72
2023/03/17 05:05:17;;;;;;;9.73;2.20;;;30.70;99.90;;;;;;5052611;28;20279;-72
2023/03/17 05:07:45;;;;;;;11.37;2.37;;;30.80;99.90;;;;;;5053716;28;20649;-72
2023/03/17 05:10:12;;;;;;;13.53;2.77;;;31.00;99.90;;;;;;5053168;28;20266;-72
2023/03/17 05:12:41;;;;;;;8.80;2.38;;;30.90;99.90;;;;;;5053608;28;20169;-72
2023/03/17 05:15:09;;;;;;;8.13;1.90;;;30.90;99.90;;;;;;5052679;28;20209;-72
2023/03/17 05:17:37;;;;;;;8.43;2.10;;;31.00;99.90;;;;;;5052556;28;20196;-72
2023/03/17 05:20:05;;;;;;;7.50;1.85;;;30.80;99.90;;;;;;5053523;28;20169;-72
2023/03/17 05:22:32;;;;;;;5.20;1.93;;;30.50;99.90;;;;;;5053209;28;20193;-72
2023/03/17 05:25:00;;;;;;;10.30;2.70;;;30.10;99.90;;;;;;5044298;28;20599;-72
2023/03/17 05:27:27;;;;;;;11.70;2.23;;;29.60;99.90;;;;;;5038662;28;20184;-71
2023/03/17 05:29:54;;;;;;;10.87;2.80;;;29.30;99.90;;;;;;5052370;28;20208;-72
2023/03/17 05:32:22;;;;;;;8.50;2.23;;;29.40;99.90;;;;;;5040299;28;20185;-72
2023/03/17 05:34:50;;;;;;;9.33;2.77;;;29.20;99.90;;;;;;5033303;28;20205;-72
2023/03/17 05:37:18;;;;;;;10.17;2.60;;;29.10;99.90;;;;;;5037707;28;20673;-72
2023/03/17 05:39:46;;;;;;;11.70;2.43;;;28.80;99.90;;;;;;5053376;28;20168;-71
2023/03/17 05:42:14;;;;;;;11.83;2.50;;;28.60;99.90;;;;;;5053258;28;20188;-71
2023/03/17 05:44:42;;;;;;;7.87;3.00;;;28.60;99.90;;;;;;5043707;28;20923;-71
2023/03/17 05:47:09;;;;;;;10.30;2.20;;;28.50;99.90;;;;;;5048345;28;20658;-72
2023/03/17 05:49:37;;;;;;;13.20;2.70;;;28.70;99.90;;;;;;5047485;28;20614;-72
2023/03/17 05:52:04;;;;;;;13.10;2.23;;;28.80;99.90;;;;;;5032537;28;20199;-72
2023/03/17 05:54:31;;;;;;;10.07;2.33;;;28.80;99.90;;;;;;5032547;28;20300;-71
2023/03/17 05:56:59;;;;;;;9.83;2.53;;;28.80;99.90;;;;;;5035786;28;20188;-71
2023/03/17 05:59:27;;;;;;;11.97;2.87;;;28.50;99.90;;;;;;5050209;28;20189;-72
2023/03/17 06:01:55;;;;;;;11.77;2.70;;;28.40;99.90;;;;;;5050905;28;20654;-72
2023/03/17 06:04:23;;;;;;;6.80;2.00;;;28.30;99.90;;;;;;5050759;28;20219;-71
2023/03/17 06:06:50;;;;;;;10.67;2.87;;;28.40;99.90;;;;;;5051834;28;20238;-71
2023/03/17 06:09:18;;;;;;;7.43;2.20;;;28.60;99.90;;;;;;5038033;28;20642;-71
2023/03/17 06:11:45;;;;;;;6.53;2.30;;;28.50;99.90;;;;;;5052538;28;20618;-71
2023/03/17 06:14:13;;;;;;;11.50;2.97;;;28.00;99.90;;;;;;5052458;28;20215;-72
2023/03/17 06:16:40;;;;;;;7.13;2.10;;;27.90;99.90;;;;;;5048827;28;20775;-72
2023/03/17 06:19:08;;;;;;;10.40;2.27;;;27.80;99.90;;;;;;5052123;28;20188;-71
2023/03/17 06:21:35;;;;;;;8.87;2.10;;;27.90;99.90;;;;;;5052074;28;20176;-71
2023/03/17 06:24:03;;;;;;;7.37;2.00;;;27.90;99.90;;;;;;5052276;28;20181;-71
2023/03/17 06:26:30;;;;;;;7.90;2.10;;;27.80;99.90;;;;;;5051662;28;20223;-71
2023/03/17 06:28:58;;;;;;;11.73;2.87;;;27.70;99.90;;;;;;5052215;28;20673;-72
2023/03/17 06:31:26;;;;;;;9.30;3.00;;;27.60;99.90;;;;;;5052063;28;20177;-72
2023/03/17 06:33:54;;;;;;;11.80;2.80;;;27.50;99.90;;;;;;5051958;28;20172;-71
2023/03/17 06:36:21;;;;;;;6.53;2.63;;;27.50;99.90;;;;;;5051829;28;20980;-72
2023/03/17 06:38:48;;;;;;;5.03;2.03;;;27.40;99.90;;;;;;5051943;28;20169;-72
2023/03/17 06:41:16;;;;;;;8.33;2.40;;;27.30;99.90;;;;;;5052043;28;20184;-72
2023/03/17 06:43:43;;;;;;;9.87;2.20;;;27.20;99.90;;;;;;5051834;28;20184;-73
2023/03/17 06:46:11;;;;;;;10.37;2.30;;;26.90;99.90;;;;;;5051944;28;20179;-71
2023/03/17 06:48:38;;;;;;;12.93;3.60;;;26.90;99.90;;;;;;5052074;28;20653;-72
2023/03/17 06:51:06;;;;;;;9.93;2.00;;;27.00;99.90;;;;;;5050751;28;20177;-71
2023/03/17 06:53:33;;;;;;;8.80;2.70;;;27.00;99.90;;;;;;5050334;28;20560;-72
2023/03/17 06:56:01;;;;;;;10.30;2.37;;;27.10;99.90;;;;;;5049355;28;20889;-72
2023/03/17 06:58:29;;;;;;;11.40;3.63;;;27.10;99.90;;;;;;5051689;28;20169;-73
2023/03/17 07:00:58;;;;;;;9.67;2.33;;;27.20;99.90;;;;;;5050821;28;20193;-72
2023/03/17 07:03:26;;;;;;;9.67;2.53;;;27.40;99.90;;;;;;5050694;28;20181;-72
2023/03/17 07:05:53;;;;;;;7.47;2.60;;;27.40;99.90;;;;;;5050899;28;20204;-72
2023/03/17 07:08:21;;;;;;;10.33;2.50;;;27.40;99.90;;;;;;5051637;28;20639;-72
2023/03/17 07:10:48;;;;;;;7.30;2.17;;;27.30;99.90;;;;;;5051792;28;20275;-72
2023/03/17 07:13:16;;;;;;;10.83;2.40;;;27.20;99.90;;;;;;5051680;28;20177;-72
2023/03/17 07:15:45;;;;;;;4.87;1.83;;;27.10;99.90;;;;;;5051615;28;20220;-72
2023/03/17 07:18:13;;;;;;;8.87;2.30;;;27.00;99.90;;;;;;5051684;28;20194;-72
2023/03/17 07:20:41;;;;;;;12.67;2.50;;;26.90;99.90;;;;;;5048453;28;20180;-72
2023/03/17 07:23:20;;;;;;;5.27;2.17;;;26.80;99.90;;;;;;5051608;28;20172;-71
2023/03/17 07:25:47;;;;;;;9.17;2.77;;;26.60;99.90;;;;;;5051346;28;20234;-71
2023/03/17 07:28:15;;;;;;;9.57;2.77;;;26.50;99.90;;;;;;5055751;28;20180;-71
2023/03/17 07:30:45;;;;;;;11.50;2.70;;;26.40;99.90;;;;;;5055627;28;20283;-71
2023/03/17 07:33:13;;;;;;;9.60;2.23;;;26.30;99.90;;;;;;5055799;28;20185;-71
2023/03/17 07:35:41;;;;;;;15.60;2.80;;;26.30;99.90;;;;;;5055369;28;20673;-71
2023/03/17 07:38:08;;;;;;;11.53;3.27;;;26.20;99.90;;;;;;5055530;28;20235;-70
2023/03/17 07:40:37;;;;;;;9.53;2.60;;;26.10;99.90;;;;;;5054056;28;20196;-70
2023/03/17 07:43:05;;;;;;;8.93;2.10;;;26.00;99.90;;;;;;5054781;28;20263;-71
2023/03/17 07:45:34;;;;;;;7.43;2.30;;;26.00;99.90;;;;;;5054953;28;20629;-71
2023/03/17 07:48:04;;;;;;;12.93;2.37;;;26.00;99.90;;;;;;5054868;28;20223;-70
2023/03/17 07:50:35;;;;;;;9.20;2.53;;;25.90;99.90;;;;;;5054439;28;20184;-69
2023/03/17 07:53:03;;;;;;;6.83;3.03;;;25.90;99.90;;;;;;5048916;28;20186;-70
2023/03/17 07:55:31;;;;;;;10.70;3.00;;;25.90;99.90;;;;;;5035025;28;20201;-69
2023/03/17 07:58:00;;;;;;;10.20;2.80;;;26.00;99.90;;;;;;5035190;28;20173;-69
2023/03/17 08:00:28;;;;;;;7.33;2.57;;;26.00;99.90;;;;;;5034725;28;20185;-70
2023/03/17 08:02:56;;;;;;;10.03;3.03;;;26.00;99.90;;;;;;5035152;28;20174;-70
2023/03/17 08:05:24;;;;;;;10.50;2.87;;;26.00;99.90;;;;;;5035087;28;20181;-68
2023/03/17 08:07:53;;;;;;;7.27;2.00;;;25.90;99.90;;;;;;5043425;28;20192;-68
2023/03/17 08:10:21;;;;;;;7.97;2.87;;;25.90;99.90;;;;;;5049574;28;20181;-69
2023/03/17 08:12:52;;;;;;;11.63;2.80;;;25.80;99.90;;;;;;5051268;28;20275;-68
2023/03/17 08:15:20;;;;;;;10.43;2.63;;;25.70;99.90;;;;;;5045644;28;20682;-69
2023/03/17 08:17:48;;;;;;;8.23;2.07;;;25.70;99.90;;;;;;5052001;28;20208;-69
2023/03/17 08:20:16;;;;;;;5.77;1.90;;;25.60;99.90;;;;;;5051690;28;20220;-68
2023/03/17 08:22:44;;;;;;;12.93;3.07;;;25.60;99.90;;;;;;5037181;28;20197;-68
2023/03/17 08:25:12;;;;;;;9.43;2.83;;;25.60;99.90;;;;;;5050340;28;20278;-69
2023/03/17 08:27:41;;;;;;;7.80;2.40;;;25.50;99.90;;;;;;5043442;28;20192;-69
2023/03/17 08:30:10;;;;;;;9.33;2.33;;;25.50;99.90;;;;;;5054985;28;20181;-69
2023/03/17 08:32:37;;;;;;;13.57;2.67;;;25.40;99.90;;;;;;5053476;28;20279;-69
2023/03/17 08:35:06;;;;;;;10.27;2.10;;;25.40;99.90;;;;;;5053652;28;20696;-69
2023/03/17 08:37:33;;;;;;;9.10;2.40;;;25.30;99.90;;;;;;5051991;28;20189;-69
2023/03/17 08:40:01;;;;;;;9.47;2.80;;;25.30;99.90;;;;;;5053400;28;20196;-69
2023/03/17 08:42:29;;;;;;;9.53;3.00;;;25.20;99.90;;;;;;5054304;28;20327;-68
2023/03/17 08:44:57;;;;;;;8.23;2.70;;;25.20;99.90;;;;;;5055381;28;20181;-69
2023/03/17 08:47:26;;;;;;;12.30;2.53;;;25.10;99.90;;;;;;5055432;28;20634;-70
2023/03/17 08:49:55;;;;;;;13.10;2.53;;;25.10;99.90;;;;;;5053647;28;20276;-68
2023/03/17 08:52:22;;;;;;;12.07;2.80;;;25.00;99.90;;;;;;5054433;28;20185;-68
2023/03/17 08:54:50;;;;;;;8.97;2.50;;;25.00;99.90;;;;;;5055253;28;20173;-68
2023/03/17 08:57:18;;;;;;;12.73;2.57;;;25.00;99.90;;;;;;5042857;28;20197;-69
2023/03/17 08:59:46;;;;;;;9.77;2.53;;;24.90;99.90;;;;;;5053678;28;20184;-68
2023/03/17 09:02:14;;;;;;;11.60;2.33;;;24.80;99.90;;;;;;5055000;28;20211;-68
2023/03/17 09:04:45;;;;;;;8.77;2.23;;;24.80;99.90;;;;;;5054926;28;20504;-68
2023/03/17 09:07:14;;;;;;;16.33;2.70;;;24.70;99.90;;;;;;5048962;28;20197;-68
2023/03/17 09:09:41;;;;;;;11.87;2.97;;;24.70;99.90;;;;;;5042837;28;20188;-69
2023/03/17 09:12:10;;;;;;;11.93;2.90;;;24.70;99.90;;;;;;5052048;28;20504;-69
2023/03/17 09:14:38;;;;;;;7.47;2.20;;;24.60;99.90;;;;;;5054575;28;20185;-68
2023/03/17 09:17:07;;;;;;;5.93;1.90;;;24.60;99.90;;;;;;5054297;28;20196;-68
2023/03/17 09:19:35;;;;;;;11.40;2.80;;;24.70;99.90;;;;;;5054689;28;20180;-68
2023/03/17 09:22:03;;;;;;;13.10;2.13;;;24.70;99.90;;;;;;5054648;28;20173;-69
2023/03/17 09:24:31;;;;;;;9.23;2.97;;;24.60;99.90;;;;;;5061972;28;20229;-69
2023/03/17 09:27:00;;;;;;;8.87;2.87;;;24.70;99.90;;;;;;5057462;28;20189;-69
2023/03/17 09:29:28;;;;;;;7.73;2.57;;;24.70;99.90;;;;;;5054561;28;20176;-68
2023/03/17 09:31:56;;;;;;;15.03;2.33;;;24.70;99.90;;;;;;5054813;28;20180;-68
2023/03/17 09:34:24;;;;;;;7.83;2.27;;;24.70;99.90;;;;;;5047978;28;20666;-69
2023/03/17 09:36:54;;;;;;;11.70;2.63;;;24.70;99.90;;;;;;5046895;28;20739;-68
2023/03/17 09:39:23;;;;;;;14.70;2.80;;;24.60;99.90;;;;;;5054662;28;20172;-68
2023/03/17 09:42:12;;;;;;;10.17;2.67;;;24.50;99.90;;;;;;5054224;28;20185;-68
2023/03/17 09:45:05;;;;;;;13.23;3.00;;;24.60;99.90;;;;;;5051316;28;20184;-68
2023/03/17 09:47:51;;;;;;;13.73;2.93;;;24.60;99.90;;;;;;5047973;28;20281;-69
2023/03/17 09:50:27;;;;;;;11.07;2.23;;;24.60;99.90;;;;;;5033124;28;20188;-68
2023/03/17 09:52:57;;;;;;;10.70;2.40;;;24.60;99.90;;;;;;5033751;28;20577;-69
2023/03/17 09:55:28;;;;;;;9.07;2.27;;;24.60;99.90;;;;;;5047497;28;20735;-69
2023/03/17 09:57:57;;;;;;;11.47;2.23;;;24.60;99.90;;;;;;5053965;28;20657;-68
2023/03/17 10:00:29;;;;;;;8.30;2.20;;;24.60;99.90;;;;;;5048328;28;20181;-69
2023/03/17 10:02:58;;;;;;;12.70;2.93;;;24.50;99.90;;;;;;5039261;28;20207;-69
2023/03/17 10:05:29;;;;;;;10.63;2.77;;;24.60;99.90;;;;;;5051225;28;20181;-69
2023/03/17 10:08:32;;;;;;;13.30;2.47;;;24.60;99.90;;;;;;5054038;28;20221;-69
2023/03/17 10:11:17;;;;;;;10.27;2.87;;;24.60;99.90;;;;;;5048791;28;20189;-69
2023/03/17 10:13:57;;;;;;;12.20;3.17;;;24.70;99.90;;;;;;5090064;27;21083;-70
2023/03/17 10:16:47;;;;;;;7.47;2.70;;;24.70;99.90;;;;;;5087701;28;20236;-68
2023/03/17 10:19:32;;;;;;;17.07;2.87;;;24.80;99.90;;;;;;5088868;28;20167;-68
2023/03/17 10:22:18;;;;;;;9.67;2.60;;;24.80;99.90;;;;;;5088511;28;20172;-68
2023/03/17 10:24:51;;;;;;;7.53;2.70;;;24.80;99.90;;;;;;5081930;28;20274;-68
2023/03/17 10:27:20;;;;;;;8.70;2.40;;;24.80;99.90;;;;;;5088285;28;20548;-69
2023/03/17 10:29:48;;;;;;;9.80;2.60;;;24.80;99.90;;;;;;5088296;28;20224;-68
2023/03/17 10:32:15;;;;;;;16.50;2.70;;;24.80;99.90;;;;;;5088274;28;20289;-68
2023/03/17 10:34:44;;;;;;;12.47;2.57;;;24.80;99.90;;;;;;5071031;28;20274;-68
2023/03/17 10:37:23;;;;;;;11.83;2.90;;;24.70;99.90;;;;;;5089040;28;20179;-68
2023/03/17 10:39:56;;;;;;;7.43;2.43;;;24.70;99.90;;;;;;5090565;28;20176;-68
2023/03/17 10:42:28;;;;;;;11.00;2.80;;;24.70;99.90;;;;;;5071313;28;20521;-68
2023/03/17 10:45:14;;;;;;;10.63;3.47;;;24.70;99.90;;;;;;5061124;28;20187;-68
2023/03/17 10:47:46;;;;;;;6.97;1.90;;;24.60;99.90;;;;;;5088861;28;20187;-69
2023/03/17 10:50:30;;;;;;;11.97;2.73;;;24.60;99.90;;;;;;5089646;28;20191;-69
2023/03/17 10:52:59;;;;;;;11.80;2.93;;;24.60;99.90;;;;;;5087920;28;20262;-69
2023/03/17 10:55:38;;;;;;;7.77;2.43;;;24.50;99.90;;;;;;5088047;28;20273;-69
2023/03/17 10:58:14;;;;;;;10.77;2.80;;;24.50;99.90;;;;;;5088499;28;20183;-69
2023/03/17 11:00:56;;;;;;;8.63;2.10;;;24.50;99.90;;;;;;5089421;28;20573;-69
2023/03/17 11:03:32;;;;;;;9.67;2.80;;;24.50;99.90;;;;;;5089231;28;20576;-69
2023/03/17 11:06:15;;;;;;;11.60;2.60;;;24.50;99.90;;;;;;5087188;28;20320;-69
2023/03/17 11:08:48;;;;;;;11.77;2.70;;;24.50;99.90;;;;;;5088382;28;20630;-69
2023/03/17 11:11:36;;;;;;;10.57;2.70;;;24.50;99.90;;;;;;5087554;28;20266;-69
2023/03/17 11:14:04;;;;;;;14.20;2.77;;;24.40;99.90;;;;;;5083399;28;20668;-68
2023/03/17 11:16:37;;;;;;;8.53;2.30;;;24.40;99.90;;;;;;5088696;28;20219;-68
2023/03/17 11:19:11;;;;;;;10.20;2.80;;;24.40;99.90;;;;;;5082045;28;21745;-69
2023/03/17 11:22:05;;;;;;;11.40;2.80;;;24.40;99.90;;;;;;5065301;28;20184;-69
2023/03/17 11:24:40;;;;;;;8.70;2.40;;;24.40;99.90;;;;;;5077414;28;20266;-68
2023/03/17 11:27:29;;;;;;;13.00;3.10;;;24.40;99.90;;;;;;5070902;28;20640;-69
2023/03/17 11:30:09;;;;;;;20.70;3.83;;;24.40;99.90;;;;;;5054229;28;20187;-68
2023/03/17 11:32:55;;;;;;;11.13;2.87;;;24.40;99.90;;;;;;5074141;28;20215;-68
2023/03/17 11:35:46;;;;;;;14.17;3.10;;;24.40;99.90;;;;;;5072868;28;20366;-68
2023/03/17 11:38:29;;;;;;;11.50;2.83;;;24.40;99.90;;;;;;5075375;28;20176;-69
2023/03/17 11:41:30;;;;;;;10.47;2.43;;;24.40;99.90;;;;;;5037271;28;20189;-69
2023/03/17 11:44:06;;;;;;;11.77;3.43;;;24.30;99.90;;;;;;5035097;28;20676;-69
2023/03/17 11:46:37;;;;;;;13.37;2.83;;;24.30;99.90;;;;;;5069493;28;20313;-70
2023/03/17 11:49:34;;;;;;;10.80;2.83;;;24.30;99.90;;;;;;5070428;28;20245;-69
2023/03/17 11:52:01;;;;;;;12.43;3.07;;;24.20;99.90;;;;;;5072868;28;20207;-69
2023/03/17 11:54:47;;;;;;;12.17;2.87;;;24.20;99.90;;;;;;5057718;28;20193;-69
2023/03/17 11:57:43;;;;;;;15.67;2.80;;;24.10;99.90;;;;;;5061262;28;20184;-69
2023/03/17 12:00:29;;;;;;;9.50;2.57;;;24.10;99.90;;;;;;5068406;28;20200;-69
2023/03/17 12:03:00;;;;;;;10.80;2.60;;;24.10;99.90;;;;;;5071728;28;20553;-69
2023/03/17 12:05:31;;;;;;;11.57;2.93;;;24.10;99.90;;;;;;5035101;28;20234;-69
2023/03/17 12:08:12;;;;;;;14.00;3.10;;;24.10;99.90;;;;;;5035154;28;20200;-69
2023/03/17 12:10:53;;;;;;;13.50;2.80;;;24.10;99.90;;;;;;5057932;28;20191;-69
2023/03/17 12:13:32;;;;;;;8.60;2.30;;;23.90;99.90;;;;;;5073268;28;20246;-69
2023/03/17 12:16:10;;;;;;;10.33;2.80;;;23.80;99.90;;;;;;5071232;28;20184;-69
2023/03/17 12:18:51;;;;;;;11.77;3.37;;;23.60;99.90;;;;;;5073761;28;20276;-69
2023/03/17 12:21:55;;;;;;;11.00;2.57;;;23.60;99.90;;;;;;5048014;28;20242;-69
2023/03/17 12:24:56;;;;;;;12.00;2.70;;;23.60;99.90;;;;;;5063618;28;20211;-69
2023/03/17 12:27:38;;;;;;;12.07;2.87;;;23.60;99.90;;;;;;5062400;28;20226;-70
2023/03/17 12:30:23;;;;;;;15.13;2.97;;;23.50;99.90;;;;;;5060931;28;20188;-69
2023/03/17 12:33:11;;;;;;;13.90;3.43;;;23.50;99.90;;;;;;5061178;28;20286;-69
2023/03/17 12:35:39;;;;;;;13.63;3.87;;;23.60;99.90;;;;;;5072066;28;20179;-69
2023/03/17 12:38:38;;;;;;;13.00;2.50;;;23.60;99.90;;;;;;5071226;28;20665;-69
2023/03/17 12:41:58;;;;;;;18.33;3.73;;;23.60;99.90;;;;;;5052487;28;20200;-69
2023/03/17 12:44:40;;;;;;;9.83;3.10;;;23.70;99.90;;;;;;5032734;28;20225;-69
2023/03/17 12:47:32;;;;;;;12.87;3.50;;;23.70;99.90;;;;;;5058498;28;20230;-69
2023/03/17 12:50:44;;;;;;;14.03;3.00;;;23.70;99.90;;;;;;5067819;28;20184;-69
2023/03/17 12:53:26;;;;;;;12.63;3.63;;;23.50;99.90;;;;;;5016602;28;20230;-69
2023/03/17 12:55:57;;;;;;;11.30;3.30;;;23.40;99.90;;;;;;5043408;28;20228;-69
2023/03/17 12:58:50;;;;;;;12.10;3.67;;;23.40;99.90;;;;;;5055323;28;20196;-69
2023/03/17 13:01:32;;;;;;;13.20;3.40;;;23.40;99.90;;;;;;5038734;28;20199;-69
2023/03/17 13:04:22;;;;;;;20.17;4.00;;;23.40;99.90;;;;;;5067182;28;20203;-69
2023/03/17 13:07:02;;;;;;;12.50;3.23;;;23.30;99.90;;;;;;5070341;28;20179;-69
2023/03/17 13:09:38;;;;;;;6.90;2.80;;;23.30;99.90;;;;;;5063164;28;20194;-69
2023/03/17 13:12:07;;;;;;;10.90;2.93;;;23.30;99.90;;;;;;5067561;28;20300;-69